Time;durP1;ratioP1;P1;durP2;ratioP2;P2;SDS_P1;SDS_P2;PMS_P1;PMS_P2;Temp;Humidity;BMP_temperature;BMP_pressure;BME280_temperature;BME280_humidity;BME280_pressure;Samples;Min_cycle;Max_cycle;Signal;HPM_P1;HPM_P2
2022/08/03 00:00:40;;;;;;;0.10;0.10;;;;;;;23.18;60.33;101556.97;4993992;28;20031;-84
2022/08/03 00:03:06;;;;;;;0.10;0.10;;;;;;;23.18;60.10;101565.06;4993104;28;20077;-84
2022/08/03 00:05:32;;;;;;;0.32;0.32;;;;;;;23.18;60.16;101558.78;4993017;28;20125;-84
2022/08/03 00:08:00;;;;;;;0.10;0.10;;;;;;;23.16;60.55;101558.88;4993639;28;20034;-84
2022/08/03 00:10:26;;;;;;;0.15;0.15;;;;;;;23.15;59.41;101554.41;4993091;28;20026;-84
2022/08/03 00:12:53;;;;;;;0.10;0.10;;;;;;;23.14;60.51;101552.69;4992912;28;20109;-83
2022/08/03 00:15:19;;;;;;;0.00;0.00;;;;;;;23.19;60.39;101556.00;5000404;28;20084;-83
2022/08/03 00:17:46;;;;;;;0.10;0.10;;;;;;;23.18;60.72;101556.97;4994897;28;20144;-83
2022/08/03 00:20:12;;;;;;;0.10;0.10;;;;;;;23.19;60.44;101553.31;4995204;28;20044;-83
2022/08/03 00:22:39;;;;;;;0.10;0.10;;;;;;;23.19;60.28;101555.13;4991327;28;20102;-84
2022/08/03 00:25:05;;;;;;;0.10;0.10;;;;;;;23.17;60.15;101557.91;4992288;28;20038;-84
2022/08/03 00:27:32;;;;;;;0.08;0.08;;;;;;;23.12;60.59;101551.91;4992184;28;20481;-84
2022/08/03 00:29:58;;;;;;;0.10;0.10;;;;;;;23.09;60.34;101549.38;4991853;28;20031;-84
2022/08/03 00:32:24;;;;;;;0.00;0.00;;;;;;;23.04;61.07;101554.19;4991274;28;20041;-84
2022/08/03 00:34:51;;;;;;;0.10;0.10;;;;;;;23.04;60.71;101546.09;4992334;28;20035;-84
2022/08/03 00:37:17;;;;;;;0.10;0.10;;;;;;;22.99;60.80;101541.00;4992807;28;20032;-84
2022/08/03 00:39:45;;;;;;;0.10;0.10;;;;;;;22.97;60.53;101542.91;4991947;28;20531;-83
2022/08/03 00:42:11;;;;;;;0.10;0.10;;;;;;;22.94;61.15;101545.78;4991901;28;20026;-83
2022/08/03 00:44:41;;;;;;;0.10;0.10;;;;;;;22.93;61.29;101544.06;4992853;28;20030;-83
2022/08/03 00:47:09;;;;;;;0.55;0.55;;;;;;;22.90;61.68;101542.44;4992531;28;20088;-83
2022/08/03 00:49:38;;;;;;;0.10;0.10;;;;;;;22.89;61.98;101542.50;4992778;28;20046;-84
2022/08/03 00:52:05;;;;;;;0.10;0.10;;;;;;;22.87;61.34;101534.50;4994926;28;20085;-84
2022/08/03 00:54:32;;;;;;;0.10;0.10;;;;;;;22.85;62.09;101531.00;4992728;28;20109;-84
2022/08/03 00:56:59;;;;;;;0.10;0.10;;;;;;;22.85;61.98;101535.53;4992925;28;20089;-84
2022/08/03 00:59:26;;;;;;;0.10;0.10;;;;;;;22.83;61.92;101538.34;4993275;28;20034;-84
2022/08/03 01:01:53;;;;;;;0.30;0.30;;;;;;;22.75;62.43;101540.63;4991874;28;20030;-84
2022/08/03 01:04:19;;;;;;;0.73;0.73;;;;;;;22.75;62.35;101537.94;4993072;28;20104;-84
2022/08/03 01:06:57;;;;;;;1.15;1.05;;;;;;;22.78;62.49;101532.38;4992015;28;20488;-84
2022/08/03 01:09:35;;;;;;;0.00;0.00;;;;;;;22.79;62.23;101531.38;4993377;28;20038;-84
2022/08/03 01:12:28;;;;;;;0.00;0.00;;;;;;;22.82;61.96;101523.09;4992025;28;20026;-84
2022/08/03 01:15:04;;;;;;;0.10;0.10;;;;;;;22.76;62.18;101534.28;4993356;28;20042;-84
2022/08/03 01:17:39;;;;;;;0.00;0.00;;;;;;;22.76;62.13;101526.16;4993288;28;20448;-84
2022/08/03 01:20:12;;;;;;;0.10;0.10;;;;;;;22.78;62.70;101518.84;4993525;28;20404;-83
2022/08/03 01:31:02;;;;;;;0.77;0.77;;;;;;;22.67;62.66;101524.00;5117772;27;1175512;-81
2022/08/03 01:33:38;;;;;;;0.10;0.10;;;;;;;22.68;62.60;101528.47;5134098;27;20035;-81
2022/08/03 01:36:10;;;;;;;0.10;0.10;;;;;;;22.56;63.42;101528.22;5134327;27;20027;-84
2022/08/03 01:38:40;;;;;;;;;;;;;;;22.74;62.20;101530.78;5134546;27;20425;-82
2022/08/03 01:41:10;;;;;;;0.68;0.68;;;;;;;22.57;62.44;101529.97;5133444;27;20351;-82
2022/08/03 01:43:39;;;;;;;0.10;0.10;;;;;;;22.55;62.60;101531.88;5134420;27;20051;-83
2022/08/03 01:46:08;;;;;;;0.30;0.30;;;;;;;22.52;62.95;101526.69;5134267;27;20071;-82
2022/08/03 01:48:38;;;;;;;0.10;0.10;;;;;;;22.55;62.67;101531.88;5133165;27;20020;-84
2022/08/03 01:51:07;;;;;;;0.10;0.10;;;;;;;22.53;62.61;101531.13;5133518;27;20038;-82
2022/08/03 01:53:35;;;;;;;0.10;0.10;;;;;;;22.52;62.89;101523.09;5133958;27;20065;-82
2022/08/03 01:56:02;;;;;;;0.15;0.15;;;;;;;22.50;63.16;101531.31;5134774;27;20047;-82
2022/08/03 01:58:31;;;;;;;0.10;0.10;;;;;;;22.46;63.08;101521.66;5134411;27;20027;-82
2022/08/03 02:01:00;;;;;;;0.10;0.10;;;;;;;22.46;63.02;101513.56;5133441;27;20394;-83
2022/08/03 02:03:28;;;;;;;0.10;0.10;;;;;;;22.44;63.55;101515.47;5135786;27;20398;-83
2022/08/03 02:05:57;;;;;;;0.10;0.10;;;;;;;22.42;63.96;101512.00;5134034;27;20020;-83
2022/08/03 02:08:26;;;;;;;0.55;0.20;;;;;;;22.40;63.96;101512.06;5133388;27;20031;-83
2022/08/03 02:10:53;;;;;;;0.10;0.10;;;;;;;22.36;64.23;101515.03;5132250;27;20038;-83
2022/08/03 02:13:21;;;;;;;0.05;0.05;;;;;;;22.33;64.31;101516.09;5133960;27;20398;-81
2022/08/03 02:15:48;;;;;;;0.05;0.05;;;;;;;22.33;63.38;101512.50;5134478;27;20039;-82
2022/08/03 02:18:15;;;;;;;0.60;0.40;;;;;;;22.27;64.18;101513.75;5134186;27;20403;-81
2022/08/03 02:20:43;;;;;;;0.90;0.90;;;;;;;22.30;63.59;101509.00;5134029;27;20015;-84
2022/08/03 02:23:09;;;;;;;0.10;0.10;;;;;;;22.33;63.85;101509.81;5134315;27;20031;-82
2022/08/03 02:25:43;;;;;;;0.65;0.43;;;;;;;22.38;63.33;101505.03;5133928;27;20023;-82
2022/08/03 02:28:16;;;;;;;3.20;1.40;;;;;;;22.33;63.59;101507.09;5134688;27;20043;-82
2022/08/03 02:30:45;;;;;;;0.15;0.15;;;;;;;22.34;62.94;101508.84;5132323;27;20039;-82
2022/08/03 02:33:18;;;;;;;0.00;0.00;;;;;;;22.33;63.38;101504.41;5134705;27;20034;-81
2022/08/03 02:35:48;;;;;;;0.00;0.00;;;;;;;22.25;63.42;101494.91;5134503;27;20032;-83
2022/08/03 02:38:18;;;;;;;0.08;0.08;;;;;;;22.25;63.83;101500.31;5133786;27;20023;-83
2022/08/03 02:40:45;;;;;;;0.10;0.10;;;;;;;22.21;64.12;101497.91;5128324;27;20108;-84
2022/08/03 02:43:16;;;;;;;0.10;0.10;;;;;;;22.21;64.01;101496.06;5120371;28;20082;-83
2022/08/03 02:45:45;;;;;;;0.10;0.10;;;;;;;22.15;63.84;101482.94;5120188;28;20033;-83
2022/08/03 02:48:16;;;;;;;0.08;0.08;;;;;;;22.13;64.04;101492.94;5120397;28;20479;-83
2022/08/03 02:50:46;;;;;;;1.00;0.95;;;;;;;22.15;63.95;101491.03;5119954;28;20446;-84
2022/08/03 02:53:15;;;;;;;0.00;0.00;;;;;;;22.13;63.76;101493.84;5119888;28;20035;-83
2022/08/03 02:55:42;;;;;;;0.10;0.10;;;;;;;22.12;63.84;101496.63;5120177;28;20375;-83
2022/08/03 02:58:10;;;;;;;0.10;0.10;;;;;;;22.11;64.06;101498.44;5119785;28;20027;-82
2022/08/03 03:00:38;;;;;;;0.00;0.00;;;;;;;22.08;64.29;101489.66;5120534;27;20029;-83
2022/08/03 03:03:05;;;;;;;0.47;0.43;;;;;;;22.07;63.77;101487.91;5119666;28;20053;-83
2022/08/03 03:05:32;;;;;;;0.08;0.08;;;;;;;22.05;64.45;101489.84;5119742;28;20032;-83
2022/08/03 03:07:59;;;;;;;0.10;0.10;;;;;;;22.02;64.32;101492.72;5120598;28;20030;-83
2022/08/03 03:10:26;;;;;;;0.55;0.55;;;;;;;22.01;63.96;101480.16;5120467;28;20085;-83
2022/08/03 03:12:56;;;;;;;0.90;0.45;;;;;;;22.01;64.43;101482.88;5118881;28;20059;-84
2022/08/03 03:15:24;;;;;;;0.47;0.47;;;;;;;21.95;64.58;101476.88;5120410;28;20035;-83
2022/08/03 03:17:52;;;;;;;0.10;0.10;;;;;;;21.97;64.15;101474.97;5119307;28;20035;-83
2022/08/03 03:20:19;;;;;;;0.10;0.10;;;;;;;21.93;64.67;101483.31;5119779;28;20137;-83
2022/08/03 03:22:49;;;;;;;0.10;0.10;;;;;;;21.93;64.46;101478.81;5119104;28;20505;-82
2022/08/03 03:25:16;;;;;;;0.00;0.00;;;;;;;21.89;64.07;101479.06;5119841;28;20077;-83
2022/08/03 03:27:42;;;;;;;0.30;0.30;;;;;;;21.89;64.86;101477.22;5119760;28;20469;-83
2022/08/03 03:30:09;;;;;;;0.10;0.10;;;;;;;21.83;64.83;101482.97;5119592;28;20382;-83
2022/08/03 03:32:36;;;;;;;0.22;0.22;;;;;;;21.78;65.29;101491.34;5118338;28;20074;-83
2022/08/03 03:35:03;;;;;;;0.45;0.45;;;;;;;21.78;64.59;101485.97;5125869;28;20027;-83
2022/08/03 03:37:29;;;;;;;0.10;0.10;;;;;;;21.81;64.56;101490.31;5121507;28;20020;-81
2022/08/03 03:39:56;;;;;;;1.45;1.33;;;;;;;21.80;64.82;101484.03;5119764;28;20019;-82
2022/08/03 03:42:22;;;;;;;0.10;0.10;;;;;;;21.72;64.77;101488.13;5117818;28;20027;-82
2022/08/03 03:44:48;;;;;;;0.38;0.38;;;;;;;21.75;64.07;101490.66;5118366;28;20031;-85
2022/08/03 03:47:14;;;;;;;0.00;0.00;;;;;;;21.68;64.55;101489.25;5117795;28;20434;-84
2022/08/03 03:49:41;;;;;;;0.05;0.05;;;;;;;21.70;65.05;101485.50;5117891;28;20516;-81
2022/08/03 03:52:08;;;;;;;4.95;1.67;;;;;;;21.66;65.32;101486.66;5116608;28;20368;-82
2022/08/03 03:54:43;;;;;;;0.22;0.22;;;;;;;21.74;64.74;101484.38;5117544;28;20051;-82
2022/08/03 03:57:10;;;;;;;0.10;0.10;;;;;;;21.62;64.90;101496.75;5117864;28;20027;-82
2022/08/03 03:59:41;;;;;;;0.30;0.30;;;;;;;21.68;64.79;101500.03;5118266;28;20098;-83
2022/08/03 04:02:08;;;;;;;0.10;0.10;;;;;;;21.62;65.04;101493.16;5116684;28;20023;-83
2022/08/03 04:13:06;;;;;;;0.30;0.30;;;;;;;21.58;65.18;101497.88;5116578;28;20044;-82
2022/08/03 04:15:33;;;;;;;0.75;0.75;;;;;;;21.59;65.04;101499.59;5117702;28;20558;-83
2022/08/03 04:18:02;;;;;;;0.28;0.28;;;;;;;21.55;65.27;101498.00;5117462;28;20040;-83
2022/08/03 04:20:31;;;;;;;0.10;0.10;;;;;;;21.59;65.34;101499.59;5117470;28;20037;-83
2022/08/03 04:22:59;;;;;;;0.43;0.43;;;;;;;21.58;65.39;101494.28;5117263;28;20020;-82
2022/08/03 04:25:30;;;;;;;0.10;0.10;;;;;;;21.61;65.07;101500.38;5117868;28;20406;-82
2022/08/03 04:28:01;;;;;;;0.10;0.10;;;;;;;21.58;65.54;101503.28;5118274;28;20080;-82
2022/08/03 04:30:28;;;;;;;0.20;0.20;;;;;;;21.60;65.06;101504.03;5117829;27;20034;-82
2022/08/03 04:32:57;;;;;;;0.00;0.00;;;;;;;21.60;65.30;101495.94;5117138;28;20059;-82
2022/08/03 04:35:27;;;;;;;0.13;0.13;;;;;;;21.58;65.62;101495.19;5118462;28;20127;-83
2022/08/03 04:37:55;;;;;;;0.10;0.10;;;;;;;21.57;65.73;101504.22;5118687;28;20027;-82
2022/08/03 04:40:41;;;;;;;0.08;0.08;;;;;;;21.61;65.59;101505.78;5117927;28;20020;-84
2022/08/03 04:43:10;;;;;;;0.10;0.10;;;;;;;21.50;65.59;101498.25;5117453;28;20111;-84
2022/08/03 04:45:37;;;;;;;0.10;0.10;;;;;;;21.47;65.90;101502.94;5117575;28;20041;-84
2022/08/03 04:48:04;;;;;;;0.03;0.03;;;;;;;21.50;65.69;101508.19;5117558;28;20645;-84
2022/08/03 04:50:31;;;;;;;0.10;0.10;;;;;;;21.49;65.79;101506.44;5117900;27;20095;-84
2022/08/03 04:52:57;;;;;;;0.10;0.10;;;;;;;21.44;66.01;101516.59;5117231;28;20072;-84
2022/08/03 04:58:03;;;;;;;0.10;0.10;;;;;;;21.47;65.81;101522.69;5121697;27;1174142;-83
2022/08/03 05:00:30;;;;;;;0.10;0.10;;;;;;;21.47;65.95;101520.00;5132052;27;20035;-83
2022/08/03 05:02:56;;;;;;;0.10;0.10;;;;;;;21.48;65.62;101521.75;5113580;27;20074;-83
2022/08/03 05:05:22;;;;;;;0.10;0.10;;;;;;;21.46;65.87;101514.72;5114324;28;20027;-83
2022/08/03 05:07:49;;;;;;;0.10;0.10;;;;;;;21.49;66.17;101517.22;5114336;28;20088;-83
2022/08/03 05:10:15;;;;;;;0.10;0.10;;;;;;;21.51;65.94;101520.72;5114657;28;20055;-82
2022/08/03 05:12:42;;;;;;;0.10;0.10;;;;;;;21.52;65.71;101527.84;5118173;28;20032;-83
2022/08/03 05:15:08;;;;;;;0.10;0.10;;;;;;;21.52;65.89;101527.84;5120152;28;20151;-83
2022/08/03 05:17:35;;;;;;;0.47;0.47;;;;;;;21.48;66.08;101531.66;5117754;28;20036;-81
2022/08/03 05:20:03;;;;;;;7.00;1.52;;;;;;;21.54;65.60;101527.75;5119685;28;20024;-82
2022/08/03 05:22:29;;;;;;;0.20;0.20;;;;;;;21.53;66.02;101537.66;5117291;28;20032;-83
2022/08/03 05:24:55;;;;;;;0.10;0.10;;;;;;;21.57;65.84;101541.09;5117710;28;20028;-81
2022/08/03 05:27:21;;;;;;;0.40;0.40;;;;;;;21.59;66.06;101540.03;5118016;28;20120;-83
2022/08/03 05:29:49;;;;;;;0.10;0.10;;;;;;;21.62;66.10;101539.00;5117608;28;20024;-83
2022/08/03 05:32:15;;;;;;;0.10;0.10;;;;;;;21.68;66.17;101543.19;5098594;22;20152;-79
2022/08/03 05:34:42;;;;;;;0.08;0.08;;;;;;;21.65;66.23;101537.00;5055954;28;20029;-80
2022/08/03 05:37:08;;;;;;;0.85;0.60;;;;;;;21.76;66.02;101540.94;5055446;28;20034;-80
2022/08/03 05:39:35;;;;;;;6.22;1.48;;;;;;;21.82;65.69;101540.59;5054105;28;20029;-79
2022/08/03 05:42:01;;;;;;;0.10;0.10;;;;;;;21.86;65.91;101544.84;5054076;28;20049;-80
2022/08/03 05:44:27;;;;;;;0.10;0.10;;;;;;;21.86;65.70;101542.16;5054676;28;20021;-79
2022/08/03 05:46:53;;;;;;;0.10;0.10;;;;;;;21.96;65.85;101542.50;5055383;28;20040;-80
2022/08/03 05:49:20;;;;;;;0.10;0.10;;;;;;;22.01;65.88;101540.41;5054747;28;20076;-79
2022/08/03 05:51:46;;;;;;;0.20;0.20;;;;;;;22.00;65.95;101537.81;5053761;28;20033;-81
2022/08/03 05:54:12;;;;;;;0.10;0.10;;;;;;;22.09;65.82;101532.75;5054405;28;20033;-80
2022/08/03 05:56:39;;;;;;;0.30;0.30;;;;;;;22.15;65.77;101536.91;5054986;28;20485;-80
2022/08/03 05:59:06;;;;;;;0.00;0.00;;;;;;;22.19;65.44;101537.63;5054816;28;20057;-80
2022/08/03 06:01:32;;;;;;;2.28;1.17;;;;;;;22.20;65.55;101536.66;5053600;28;20068;-80
2022/08/03 06:03:58;;;;;;;0.10;0.10;;;;;;;22.34;65.26;101535.84;5055040;28;20033;-80
2022/08/03 06:06:24;;;;;;;1.63;0.57;;;;;;;22.36;65.35;101540.19;5054857;28;20048;-80
2022/08/03 06:08:51;;;;;;;0.22;0.22;;;;;;;22.43;65.54;101529.91;5044916;28;20029;-81
2022/08/03 06:11:17;;;;;;;0.10;0.10;;;;;;;22.48;65.29;101537.75;5040383;28;20057;-79
2022/08/03 06:13:44;;;;;;;0.68;0.68;;;;;;;22.61;65.35;101533.38;5041799;28;20512;-80
2022/08/03 06:16:10;;;;;;;0.80;0.80;;;;;;;22.60;65.04;101532.50;5041630;28;20030;-81
2022/08/03 06:18:36;;;;;;;0.10;0.10;;;;;;;22.64;64.71;101538.56;5041806;28;20116;-81
2022/08/03 06:21:03;;;;;;;1.25;1.15;;;;;;;22.68;64.58;101541.97;5040922;28;20059;-80
2022/08/03 06:23:29;;;;;;;0.65;0.50;;;;;;;22.73;64.39;101539.84;5041394;28;20116;-81
2022/08/03 06:25:55;;;;;;;0.10;0.10;;;;;;;22.93;63.91;101544.91;5041427;28;20052;-80
2022/08/03 06:28:21;;;;;;;0.30;0.30;;;;;;;22.91;63.87;101541.44;5040892;28;20041;-81
2022/08/03 06:30:48;;;;;;;1.55;1.02;;;;;;;22.90;63.58;101547.81;5040323;28;20063;-80
2022/08/03 06:33:14;;;;;;;0.57;0.50;;;;;;;22.89;63.39;101535.28;5041417;28;20052;-79
2022/08/03 06:35:40;;;;;;;0.10;0.10;;;;;;;22.97;63.12;101533.91;5040979;28;20033;-79
2022/08/03 06:38:06;;;;;;;0.55;0.55;;;;;;;23.05;63.39;101537.03;5041403;28;20124;-79
2022/08/03 06:40:38;;;;;;;0.20;0.20;;;;;;;23.05;63.30;101542.44;5041286;28;20036;-80
2022/08/03 06:43:06;;;;;;;0.10;0.10;;;;;;;23.13;63.41;101533.84;5040568;28;20030;-80
2022/08/03 06:45:33;;;;;;;0.20;0.20;;;;;;;23.13;63.26;101545.53;5040089;28;20460;-79
2022/08/03 06:48:03;;;;;;;5.68;2.22;;;;;;;23.00;62.87;101548.09;5039929;28;20064;-80
2022/08/03 06:50:30;;;;;;;0.35;0.35;;;;;;;23.01;63.15;101546.28;5040290;28;20025;-80
2022/08/03 06:52:56;;;;;;;0.38;0.38;;;;;;;23.07;62.72;101557.59;5040517;28;20108;-81
2022/08/03 06:55:22;;;;;;;0.68;0.68;;;;;;;22.98;62.51;101559.97;5040754;28;20079;-79
2022/08/03 06:57:48;;;;;;;0.25;0.25;;;;;;;23.09;62.47;101560.19;5040333;28;20520;-81
2022/08/03 07:00:15;;;;;;;1.17;0.93;;;;;;;23.07;62.52;101573.81;5040699;28;20374;-79
2022/08/03 07:02:41;;;;;;;0.10;0.10;;;;;;;23.21;62.46;101559.47;5040129;28;20108;-80
2022/08/03 07:05:08;;;;;;;4.13;0.90;;;;;;;23.24;62.27;101559.28;5041725;28;20041;-80
2022/08/03 07:07:34;;;;;;;0.60;0.60;;;;;;;23.34;62.26;101564.09;5040839;28;20033;-80
2022/08/03 07:10:01;;;;;;;0.10;0.10;;;;;;;23.41;62.28;101562.75;5041444;28;20048;-79
2022/08/03 07:12:29;;;;;;;0.65;0.65;;;;;;;23.49;62.35;101568.56;5040301;28;20034;-80
2022/08/03 07:14:56;;;;;;;0.52;0.52;;;;;;;23.57;61.79;101570.78;5040666;28;20036;-79
2022/08/03 07:17:22;;;;;;;0.98;0.73;;;;;;;23.52;61.23;101568.34;5039945;28;20040;-80
2022/08/03 07:19:49;;;;;;;0.47;0.47;;;;;;;23.66;61.17;101570.16;5040070;28;20029;-80
2022/08/03 07:22:15;;;;;;;0.10;0.10;;;;;;;23.65;61.20;101572.97;5039280;28;20034;-79
2022/08/03 07:24:41;;;;;;;0.15;0.15;;;;;;;23.65;60.72;101568.47;5039895;28;20033;-79
2022/08/03 07:27:08;;;;;;;0.88;0.88;;;;;;;23.57;60.90;101576.19;5040247;28;20055;-79
2022/08/03 07:29:35;;;;;;;1.17;0.43;;;;;;;23.56;61.02;101580.75;5040177;28;20067;-79
2022/08/03 07:32:02;;;;;;;0.77;0.77;;;;;;;23.58;60.71;101578.78;5038541;28;20044;-80
2022/08/03 07:34:29;;;;;;;0.15;0.15;;;;;;;23.50;61.19;101580.22;5039797;28;20034;-81
2022/08/03 07:36:58;;;;;;;0.20;0.20;;;;;;;23.56;61.11;101586.16;5039723;28;20030;-80
2022/08/03 07:39:24;;;;;;;0.25;0.25;;;;;;;23.58;60.39;101589.59;5038884;28;20030;-80
2022/08/03 07:41:50;;;;;;;0.35;0.35;;;;;;;23.56;60.46;101586.16;5038699;28;20037;-80
2022/08/03 07:44:18;;;;;;;2.90;2.58;;;;;;;23.70;60.69;101584.38;5038016;28;20030;-80
2022/08/03 07:46:44;;;;;;;0.75;0.75;;;;;;;23.74;60.57;101589.50;5037232;28;20021;-80
2022/08/03 07:49:10;;;;;;;0.35;0.35;;;;;;;23.78;60.54;101590.19;5036459;28;20026;-80
2022/08/03 07:51:37;;;;;;;1.13;1.05;;;;;;;23.93;60.10;101595.63;5036255;28;20056;-80
2022/08/03 07:54:03;;;;;;;3.42;1.95;;;;;;;23.85;59.56;101594.22;5038524;28;20572;-80
2022/08/03 07:56:29;;;;;;;0.50;0.50;;;;;;;23.94;59.39;101602.75;5039034;28;20029;-80
2022/08/03 07:58:55;;;;;;;0.50;0.50;;;;;;;23.95;59.44;101590.94;5039016;28;20029;-80
2022/08/03 08:01:21;;;;;;;0.75;0.75;;;;;;;23.92;59.35;101599.28;5037748;28;20037;-81
2022/08/03 08:03:49;;;;;;;0.20;0.20;;;;;;;24.11;59.12;101591.69;5040566;28;20029;-79
2022/08/03 08:06:16;;;;;;;3.38;1.85;;;;;;;24.16;59.03;101594.09;5039501;28;20040;-81
2022/08/03 08:08:43;;;;;;;1.13;1.13;;;;;;;24.30;59.26;101595.88;5042981;28;20026;-80
2022/08/03 08:11:09;;;;;;;0.57;0.57;;;;;;;24.31;58.86;101597.63;5043854;28;20033;-80
2022/08/03 08:13:37;;;;;;;0.32;0.32;;;;;;;24.46;58.68;101596.63;5043936;28;20450;-80
2022/08/03 08:16:03;;;;;;;0.13;0.13;;;;;;;24.62;58.54;101606.41;5043783;28;20034;-80
2022/08/03 08:18:30;;;;;;;1.70;1.60;;;;;;;24.68;58.31;101592.47;5043312;28;20489;-81
2022/08/03 08:20:56;;;;;;;0.22;0.22;;;;;;;24.83;57.88;101588.72;5042695;28;20025;-81
2022/08/03 08:23:22;;;;;;;1.00;1.00;;;;;;;24.81;57.94;101593.38;5043619;28;20032;-81
2022/08/03 08:25:50;;;;;;;0.20;0.20;;;;;;;24.86;57.34;101593.06;5043490;28;20025;-81
2022/08/03 08:28:19;;;;;;;0.32;0.28;;;;;;;24.96;57.13;101593.28;5043418;28;20051;-80
2022/08/03 08:30:45;;;;;;;0.30;0.30;;;;;;;25.07;57.04;101598.81;5042842;28;20059;-80
2022/08/03 08:33:12;;;;;;;1.85;0.85;;;;;;;25.03;56.62;101597.31;5042796;28;20093;-81
2022/08/03 08:35:38;;;;;;;0.20;0.20;;;;;;;25.14;56.38;101597.44;5043098;28;20033;-81
2022/08/03 08:38:04;;;;;;;0.50;0.50;;;;;;;25.11;56.17;101603.09;5043123;28;20032;-80
2022/08/03 08:40:30;;;;;;;0.40;0.40;;;;;;;25.14;56.11;101597.44;5043064;28;20030;-80
2022/08/03 08:42:56;;;;;;;2.00;1.88;;;;;;;25.12;56.22;101599.41;5041980;28;20021;-80
2022/08/03 08:45:23;;;;;;;0.35;0.32;;;;;;;25.23;55.80;101600.47;5041941;28;20040;-80
2022/08/03 08:47:50;;;;;;;0.20;0.20;;;;;;;25.21;55.80;101595.19;5043764;28;20032;-79
2022/08/03 08:50:19;;;;;;;1.23;1.20;;;;;;;25.29;55.21;101597.34;5043508;28;20030;-79
2022/08/03 08:52:49;;;;;;;0.10;0.10;;;;;;;25.30;55.59;101599.09;5042698;28;20026;-80
2022/08/03 08:55:21;;;;;;;1.38;1.05;;;;;;;25.48;55.32;101589.66;5043886;28;20033;-80
2022/08/03 08:57:51;;;;;;;0.52;0.52;;;;;;;25.60;54.72;101581.63;5043362;28;20413;-80
2022/08/03 09:00:17;;;;;;;0.98;0.98;;;;;;;25.73;54.78;101595.16;5044099;28;20041;-80
2022/08/03 09:02:44;;;;;;;0.47;0.47;;;;;;;25.73;54.73;101582.44;5043927;28;20089;-80
2022/08/03 09:05:12;;;;;;;0.25;0.25;;;;;;;25.74;54.52;101595.03;5044120;28;20096;-81
2022/08/03 09:07:40;;;;;;;0.80;0.80;;;;;;;25.77;54.50;101586.69;5043627;28;20034;-80
2022/08/03 09:10:07;;;;;;;0.65;0.65;;;;;;;25.89;54.69;101582.19;5042853;28;20033;-80
2022/08/03 09:12:40;;;;;;;0.68;0.68;;;;;;;26.06;54.16;101589.13;5034213;28;20061;-79
2022/08/03 09:18:02;;;;;;;0.30;0.30;;;;;;;26.11;53.73;101594.25;5072289;28;20383;-77
2022/08/03 09:20:30;;;;;;;1.75;0.82;;;;;;;26.23;53.63;101592.44;5071726;28;20036;-77
2022/08/03 09:28:15;;;;;;;0.60;0.60;;;;;;;26.47;53.05;101604.19;5092835;27;20389;-77
2022/08/03 09:30:44;;;;;;;0.45;0.45;;;;;;;26.63;53.63;101603.00;5091389;28;20091;-76
2022/08/03 09:33:14;;;;;;;0.85;0.85;;;;;;;26.60;52.91;101601.38;5092551;28;20028;-77
2022/08/03 09:35:42;;;;;;;0.52;0.52;;;;;;;26.62;52.24;101606.72;5092233;28;20528;-77
2022/08/03 09:38:13;;;;;;;1.65;1.38;;;;;;;26.73;51.99;101603.16;5092160;28;20047;-77
2022/08/03 09:40:39;;;;;;;1.90;1.53;;;;;;;26.65;52.31;101601.03;5091151;28;20024;-75
2022/08/03 09:43:06;;;;;;;0.20;0.20;;;;;;;26.88;51.83;101595.72;5091432;28;20033;-77
2022/08/03 09:45:34;;;;;;;0.30;0.30;;;;;;;26.88;51.28;101595.72;5092294;28;20028;-78
2022/08/03 09:48:20;;;;;;;1.95;0.63;;;;;;;27.16;51.52;101599.00;5094000;28;20029;-77
2022/08/03 09:50:52;;;;;;;8.02;1.27;;;;;;;27.16;51.38;101599.00;5093262;28;20035;-77
2022/08/03 09:53:19;;;;;;;;;;;;;;;27.43;50.71;101602.28;5094182;28;20553;-78
2022/08/03 09:58:29;;;;;;;0.13;0.13;;;;;;;27.44;50.04;101593.13;5127575;27;1166744;-80
2022/08/03 10:03:38;;;;;;;3.50;0.82;;;;;;;27.70;49.84;101598.34;5114528;27;20396;-77
2022/08/03 10:06:21;;;;;;;1.90;1.13;;;;;;;27.76;47.84;101591.50;5114649;28;20032;-78
2022/08/03 10:09:07;;;;;;;0.70;0.70;;;;;;;27.85;48.83;101593.50;5114454;28;20051;-77
2022/08/03 10:11:34;;;;;;;0.55;0.55;;;;;;;27.92;47.84;101591.13;5112628;28;20034;-77
2022/08/03 10:14:04;;;;;;;0.32;0.32;;;;;;;27.88;48.31;101595.09;5113541;28;20030;-77
2022/08/03 10:16:34;;;;;;;0.45;0.40;;;;;;;27.92;47.97;101589.25;5113535;28;20023;-77
2022/08/03 10:19:02;;;;;;;0.40;0.40;;;;;;;28.02;46.97;101591.25;5113810;28;20047;-77
2022/08/03 10:21:33;;;;;;;0.75;0.75;;;;;;;28.15;46.78;101580.22;5113447;28;20036;-77
2022/08/03 10:24:04;;;;;;;0.20;0.20;;;;;;;28.25;46.52;101575.72;5114286;28;20516;-78
2022/08/03 10:26:34;;;;;;;0.17;0.17;;;;;;;28.44;46.96;101576.88;5113578;28;20024;-77
2022/08/03 10:29:04;;;;;;;0.52;0.52;;;;;;;28.63;47.22;101582.50;5114102;28;20027;-77
2022/08/03 10:31:39;;;;;;;0.32;0.32;;;;;;;28.50;45.98;101579.97;5113563;28;20477;-77
2022/08/03 10:34:16;;;;;;;4.57;1.23;;;;;;;28.68;46.53;101582.16;5114278;28;20028;-78
2022/08/03 10:36:44;;;;;;;0.20;0.20;;;;;;;28.68;46.36;101583.00;5114591;28;20030;-78
2022/08/03 10:39:12;;;;;;;0.30;0.30;;;;;;;28.78;45.76;101574.06;5114684;28;20397;-78
2022/08/03 10:41:41;;;;;;;0.55;0.55;;;;;;;29.00;45.89;101573.06;5112706;28;20027;-77
2022/08/03 10:46:49;;;;;;;2.08;1.00;;;;;;;28.99;44.17;101579.50;5095483;27;20751;-77
2022/08/03 10:49:17;;;;;;;0.82;0.82;;;;;;;29.02;43.12;101571.94;5095024;28;20093;-77
2022/08/03 10:51:45;;;;;;;4.85;1.65;;;;;;;29.13;43.46;101570.13;5093224;28;20040;-77
2022/08/03 11:00:27;;;;;;;2.03;0.70;;;;;;;29.35;42.72;101563.66;5115038;27;20401;-77
2022/08/03 11:03:13;;;;;;;0.45;0.30;;;;;;;29.56;43.71;101558.16;5115146;28;20028;-77
2022/08/03 11:05:41;;;;;;;0.95;0.90;;;;;;;29.55;43.26;101553.69;5115578;28;20032;-77
2022/08/03 11:08:30;;;;;;;1.15;0.47;;;;;;;29.74;43.45;101557.50;5115820;28;20035;-78
2022/08/03 11:11:01;;;;;;;0.32;0.32;;;;;;;29.91;42.30;101545.91;5114984;28;20032;-77
2022/08/03 11:13:30;;;;;;;0.35;0.35;;;;;;;29.86;41.83;101561.84;5115344;28;20027;-77
2022/08/03 11:15:59;;;;;;;0.75;0.75;;;;;;;29.91;41.67;101554.09;5116251;28;20031;-78
2022/08/03 11:18:25;;;;;;;0.57;0.55;;;;;;;29.93;40.91;101552.09;5115818;28;20024;-78
2022/08/03 11:20:54;;;;;;;0.15;0.15;;;;;;;30.09;40.73;101550.69;5115219;28;20024;-78
2022/08/03 11:26:21;;;;;;;0.10;0.10;;;;;;;30.02;39.78;101551.25;5095913;27;20374;-77
2022/08/03 11:28:48;;;;;;;0.55;0.55;;;;;;;30.10;40.17;101561.47;5095360;28;20042;-78
2022/08/03 11:34:13;;;;;;;0.17;0.17;;;;;;;30.32;40.10;101545.81;5104009;22;1234585;-84
2022/08/03 11:37:19;;;;;;;1.48;0.50;;;;;;;30.47;39.84;101540.78;5092208;28;20063;-84
2022/08/03 11:39:47;;;;;;;0.17;0.17;;;;;;;30.34;39.38;101554.72;5092296;28;20043;-84
2022/08/03 11:45:07;;;;;;;0.40;0.40;;;;;;;30.70;40.12;101540.50;5120227;27;1176146;-82
2022/08/03 11:47:38;;;;;;;1.95;1.08;;;;;;;30.76;39.04;101548.13;5133783;27;20028;-83
2022/08/03 11:50:04;;;;;;;0.38;0.38;;;;;;;30.85;38.78;101541.75;5135016;27;20023;-83
2022/08/03 11:52:36;;;;;;;0.55;0.55;;;;;;;31.01;38.40;101553.97;5131059;28;20106;-83
2022/08/03 11:55:07;;;;;;;0.45;0.45;;;;;;;31.02;38.22;101547.47;5116772;28;20579;-84
2022/08/03 11:57:34;;;;;;;0.40;0.40;;;;;;;31.05;39.29;101558.13;5115986;28;20487;-83
2022/08/03 12:00:00;;;;;;;0.90;0.52;;;;;;;31.18;38.96;101549.63;5114899;28;20063;-83
2022/08/03 12:02:26;;;;;;;0.28;0.28;;;;;;;31.12;39.06;101543.75;5114124;28;20059;-84
2022/08/03 12:04:59;;;;;;;0.28;0.28;;;;;;;31.43;38.96;101550.84;5115034;28;20035;-84
2022/08/03 12:07:27;;;;;;;0.25;0.25;;;;;;;31.53;38.69;101548.91;5114967;28;20042;-85
2022/08/03 12:10:11;;;;;;;0.13;0.13;;;;;;;31.70;38.10;101550.03;5114469;28;20027;-84
2022/08/03 12:12:38;;;;;;;0.10;0.10;;;;;;;31.67;37.60;101543.97;5114458;28;20115;-84
2022/08/03 12:15:05;;;;;;;1.85;1.15;;;;;;;31.54;37.71;101547.91;5116283;28;20039;-85
2022/08/03 12:17:40;;;;;;;0.52;0.52;;;;;;;31.76;37.58;101543.06;5115344;28;20491;-85
2022/08/03 12:20:08;;;;;;;0.20;0.20;;;;;;;31.89;37.42;101540.81;5114728;28;20023;-84